createdAt,value
2022-09-10T00:01:50.958Z,5.18
2022-09-10T00:04:17.939Z,5.43
2022-09-10T00:06:44.917Z,5.43
2022-09-10T00:09:12.789Z,5.03
2022-09-10T00:11:41.100Z,5.32
2022-09-10T00:14:15.109Z,4.88
2022-09-10T00:16:42.136Z,4.88
2022-09-10T00:19:09.098Z,4.90
2022-09-10T00:21:35.933Z,4.65
2022-09-10T00:24:05.152Z,4.90
2022-09-10T00:26:38.006Z,5.00
2022-09-10T00:29:06.962Z,4.78
2022-09-10T00:31:34.360Z,4.70
2022-09-10T00:34:02.323Z,4.93
2022-09-10T00:36:40.186Z,5.65
2022-09-10T00:39:10.030Z,5.65
2022-09-10T00:41:39.183Z,5.72
2022-09-10T00:44:27.853Z,6.40
2022-09-10T00:46:55.751Z,5.53
2022-09-10T00:49:35.908Z,6.22
2022-09-10T00:52:03.499Z,6.65
2022-09-10T00:54:32.051Z,6.18
2022-09-10T00:57:05.550Z,6.32
2022-09-10T00:59:33.138Z,6.78
2022-09-10T01:01:59.941Z,6.90
2022-09-10T01:04:27.408Z,7.20
2022-09-10T01:06:55.687Z,6.82
2022-09-10T01:09:24.116Z,7.68
2022-09-10T01:12:12.282Z,7.10
2022-09-10T01:14:51.626Z,8.00
2022-09-10T01:17:44.967Z,9.03
2022-09-10T01:20:29.381Z,8.23
2022-09-10T01:23:33.681Z,8.43
2022-09-10T01:26:38.898Z,9.68
2022-09-10T01:29:24.616Z,10.52
2022-09-10T01:31:59.785Z,10.32
2022-09-10T01:34:29.799Z,11.02
2022-09-10T01:37:03.635Z,11.32
2022-09-10T01:39:31.281Z,12.00
2022-09-10T01:41:58.792Z,11.80
2022-09-10T01:44:42.109Z,11.75
2022-09-10T01:47:36.915Z,11.70
2022-09-10T01:50:39.323Z,11.70
2022-09-10T01:53:30.881Z,12.15
2022-09-10T01:56:04.600Z,11.77
2022-09-10T01:58:41.596Z,13.55
2022-09-10T02:01:33.250Z,13.30
2022-09-10T02:04:08.527Z,13.43
2022-09-10T02:06:38.786Z,14.60
2022-09-10T02:11:44.909Z,13.88
2022-09-10T02:14:14.128Z,14.50
2022-09-10T02:16:46.989Z,15.35
2022-09-10T02:19:15.442Z,14.98
2022-09-10T02:21:42.202Z,15.65
2022-09-10T02:24:12.040Z,15.25
2022-09-10T02:26:43.205Z,15.88
2022-09-10T02:29:13.704Z,14.82
2022-09-10T02:31:41.189Z,15.95
2022-09-10T02:34:08.409Z,14.68
2022-09-10T02:36:35.762Z,16.92
2022-09-10T02:39:04.593Z,16.55
2022-09-10T02:41:34.101Z,17.70
2022-09-10T02:44:02.055Z,16.83
2022-09-10T02:46:28.807Z,15.82
2022-09-10T02:48:56.221Z,16.48
2022-09-10T02:51:23.560Z,17.98
2022-09-10T02:53:50.461Z,16.38
2022-09-10T02:56:19.481Z,17.20
2022-09-10T02:58:46.277Z,17.02
2022-09-10T03:01:15.681Z,16.95
2022-09-10T03:03:42.823Z,17.43
2022-09-10T03:06:10.165Z,17.05
2022-09-10T03:08:37.470Z,17.15
2022-09-10T03:11:04.838Z,18.20
2022-09-10T03:13:31.487Z,17.67
2022-09-10T03:15:58.814Z,17.83
2022-09-10T03:18:27.977Z,17.92
2022-09-10T03:20:54.607Z,17.48
2022-09-10T03:23:21.295Z,16.95
2022-09-10T03:25:49.974Z,18.55
2022-09-10T03:28:16.829Z,18.02
2022-09-10T03:30:43.504Z,17.92
2022-09-10T03:33:11.713Z,18.98
2022-09-10T03:35:38.715Z,17.45
2022-09-10T03:38:05.834Z,17.45
2022-09-10T03:40:32.941Z,17.55
2022-09-10T03:43:00.953Z,18.33
2022-09-10T03:45:28.549Z,18.52
2022-09-10T03:47:55.300Z,17.42
2022-09-10T03:50:22.097Z,18.13
2022-09-10T03:52:48.787Z,17.73
2022-09-10T03:55:15.800Z,17.60
2022-09-10T03:57:42.509Z,17.60
2022-09-10T04:00:12.085Z,16.98
2022-09-10T04:02:38.724Z,17.38
2022-09-10T04:05:06.792Z,16.80
2022-09-10T04:07:33.573Z,16.80
2022-09-10T04:10:00.503Z,18.10
2022-09-10T04:12:27.146Z,17.58
2022-09-10T04:14:53.819Z,17.15
2022-09-10T04:17:20.882Z,17.55
2022-09-10T04:19:47.562Z,17.50
2022-09-10T04:22:14.205Z,17.10
2022-09-10T04:24:40.837Z,17.13
2022-09-10T04:27:07.524Z,16.45
2022-09-10T04:29:34.177Z,17.08
2022-09-10T04:32:00.824Z,16.23
2022-09-10T04:34:27.494Z,17.27
2022-09-10T04:36:54.201Z,15.88
2022-09-10T04:39:20.841Z,16.30
2022-09-10T04:41:47.464Z,16.10
2022-09-10T04:44:14.091Z,15.13
2022-09-10T04:46:42.236Z,15.25
2022-09-10T04:49:09.751Z,14.63
2022-09-10T04:51:36.440Z,15.40
2022-09-10T04:54:03.173Z,14.50
2022-09-10T04:56:30.883Z,14.48
2022-09-10T04:58:57.524Z,15.13
2022-09-10T05:01:24.255Z,15.25
2022-09-10T05:03:50.890Z,14.93
2022-09-10T05:06:17.542Z,15.85
2022-09-10T05:08:44.146Z,15.32
2022-09-10T05:11:11.421Z,15.70
2022-09-10T05:13:38.045Z,15.63
2022-09-10T05:16:04.824Z,15.25
2022-09-10T05:18:31.576Z,15.13
2022-09-10T05:20:58.386Z,15.82
2022-09-10T05:23:25.590Z,17.17
2022-09-10T05:25:52.208Z,16.35
2022-09-10T05:28:20.791Z,15.52
2022-09-10T05:30:51.567Z,15.85
2022-09-10T05:33:18.660Z,16.00
2022-09-10T05:35:48.063Z,16.52
2022-09-10T05:38:14.701Z,16.70
2022-09-10T05:40:42.993Z,16.95
2022-09-10T05:43:11.699Z,16.98
2022-09-10T05:45:38.606Z,17.52
2022-09-10T05:48:05.404Z,17.27
2022-09-10T05:50:32.177Z,18.80
2022-09-10T05:52:58.795Z,16.67
2022-09-10T05:55:25.481Z,18.38
2022-09-10T05:57:52.124Z,17.60
2022-09-10T06:00:19.312Z,17.95
2022-09-10T06:02:46.046Z,18.80
2022-09-10T06:05:12.740Z,17.80
2022-09-10T06:07:39.873Z,17.80
2022-09-10T06:10:07.070Z,17.40
2022-09-10T06:12:34.177Z,19.23
2022-09-10T06:15:00.801Z,18.25
2022-09-10T06:17:27.436Z,18.92
2022-09-10T06:19:54.032Z,18.98
2022-09-10T06:22:20.677Z,19.00
2022-09-10T06:24:49.231Z,18.42
2022-09-10T06:27:17.008Z,18.15
2022-09-10T06:29:43.681Z,18.65
2022-09-10T06:32:10.359Z,18.23
2022-09-10T06:34:36.969Z,17.27
2022-09-10T06:37:06.065Z,17.55
2022-09-10T06:39:32.792Z,17.65
2022-09-10T06:41:59.806Z,17.15
2022-09-10T06:44:26.396Z,16.92
2022-09-10T06:47:32.442Z,15.82
2022-09-10T06:49:41.148Z,16.60
2022-09-10T06:52:07.779Z,17.30
2022-09-10T06:54:34.464Z,15.68
2022-09-10T06:57:01.404Z,16.40
2022-09-10T06:59:28.050Z,15.23
2022-09-10T07:01:55.222Z,16.30
2022-09-10T07:04:21.902Z,15.95
2022-09-10T07:06:48.779Z,15.95
2022-09-10T07:09:15.695Z,15.45
2022-09-10T07:11:42.354Z,15.95
2022-09-10T07:14:13.792Z,15.82
2022-09-10T07:16:41.502Z,15.10
2022-09-10T07:19:13.340Z,15.30
2022-09-10T07:21:40.034Z,15.95
2022-09-10T07:24:06.959Z,14.40
2022-09-10T07:26:33.640Z,16.63
2022-09-10T07:29:00.319Z,15.88
2022-09-10T07:31:28.767Z,14.57
2022-09-10T07:33:59.001Z,15.15
2022-09-10T07:38:54.242Z,13.48
2022-09-10T07:41:21.446Z,13.15
2022-09-10T07:43:49.466Z,13.13
2022-09-10T07:46:20.672Z,14.18
2022-09-10T07:48:58.278Z,13.70
2022-09-10T07:51:26.767Z,13.73
2022-09-10T07:53:58.546Z,12.88
2022-09-10T07:56:25.308Z,12.93
2022-09-10T07:58:52.490Z,12.80
2022-09-10T08:01:19.735Z,13.35
2022-09-10T08:03:47.099Z,12.35
2022-09-10T08:06:14.590Z,12.38
2022-09-10T08:08:42.675Z,13.15
2022-09-10T08:11:12.712Z,11.73
2022-09-10T08:13:47.318Z,11.77
2022-09-10T08:16:19.945Z,11.45
2022-09-10T08:18:48.134Z,11.35
2022-09-10T08:21:16.480Z,12.40
2022-09-10T08:23:48.492Z,11.32
2022-09-10T08:26:15.145Z,11.27
2022-09-10T08:28:43.176Z,9.43
2022-09-10T08:31:12.330Z,9.05
2022-09-10T08:33:39.751Z,7.90
2022-09-10T08:36:10.395Z,7.32
2022-09-10T08:38:39.848Z,8.05
2022-09-10T08:41:25.434Z,8.55
2022-09-10T08:43:59.881Z,9.50
2022-09-10T08:46:30.390Z,9.32
2022-09-10T08:49:26.148Z,7.85
2022-09-10T08:52:21.347Z,7.50
2022-09-10T08:55:19.154Z,8.00
2022-09-10T08:58:04.725Z,7.35
2022-09-10T09:00:34.096Z,6.75
2022-09-10T09:03:09.735Z,6.73
2022-09-10T09:05:55.546Z,6.72
2022-09-10T09:08:29.056Z,6.82
2022-09-10T09:11:29.176Z,6.72
2022-09-10T09:14:14.927Z,6.85
2022-09-10T09:16:47.370Z,7.15
2022-09-10T09:19:34.370Z,5.95
2022-09-10T09:22:27.434Z,5.45
2022-09-10T09:25:00.710Z,5.45
2022-09-10T09:27:33.558Z,5.95
2022-09-10T09:30:04.489Z,6.15
2022-09-10T09:32:35.270Z,6.13
2022-09-10T09:35:23.808Z,6.30
2022-09-10T09:38:10.837Z,6.30
2022-09-10T09:40:50.283Z,5.97
2022-09-10T09:43:32.428Z,6.37
2022-09-10T09:45:59.922Z,5.60
2022-09-10T09:48:37.996Z,5.25
2022-09-10T09:51:07.315Z,4.20
2022-09-10T09:53:34.144Z,4.20
2022-09-10T09:56:03.460Z,5.38
2022-09-10T09:58:33.705Z,4.30
2022-09-10T10:03:48.448Z,3.55
2022-09-10T10:06:16.315Z,3.70
2022-09-10T10:08:46.303Z,4.10
2022-09-10T10:11:18.022Z,3.80
2022-09-10T10:13:46.615Z,4.35
2022-09-10T10:16:26.763Z,4.10
2022-09-10T10:18:53.580Z,4.70
2022-09-10T10:21:31.422Z,4.43
2022-09-10T10:23:58.329Z,4.43
2022-09-10T10:26:32.478Z,4.10
2022-09-10T10:29:17.075Z,4.20
2022-09-10T10:31:46.489Z,5.43
2022-09-10T10:34:19.329Z,5.10
2022-09-10T10:37:33.335Z,4.75
2022-09-10T10:40:30.428Z,6.30
2022-09-10T10:43:24.576Z,5.75
2022-09-10T10:46:18.370Z,5.35
2022-09-10T10:48:57.879Z,7.10
2022-09-10T10:51:42.359Z,7.88
2022-09-10T10:54:41.359Z,9.02
2022-09-10T10:57:44.609Z,8.68
2022-09-10T11:00:16.823Z,10.05
2022-09-10T11:03:06.658Z,10.32
2022-09-10T11:05:38.545Z,9.57
2022-09-10T11:08:15.052Z,9.35
2022-09-10T11:11:02.710Z,9.43
2022-09-10T11:13:35.865Z,9.55
2022-09-10T11:16:05.754Z,10.10
2022-09-10T11:18:47.172Z,9.80
2022-09-10T11:21:27.396Z,9.90
2022-09-10T11:26:58.185Z,9.25
2022-09-10T11:29:33.493Z,8.65
2022-09-10T11:32:23.417Z,7.43
2022-09-10T11:35:16.886Z,6.63
2022-09-10T11:38:24.839Z,6.20
2022-09-10T11:41:04.772Z,5.45
2022-09-10T11:44:04.416Z,5.28
2022-09-10T11:46:37.912Z,5.20
2022-09-10T11:49:26.384Z,5.30
2022-09-10T11:51:53.224Z,5.05
2022-09-10T11:54:27.477Z,4.45
2022-09-10T11:57:01.323Z,4.20
2022-09-10T11:59:57.599Z,4.03
2022-09-10T12:02:39.470Z,3.95
2022-09-10T12:05:25.762Z,3.80
2022-09-10T12:08:34.574Z,4.15
2022-09-10T12:11:41.812Z,4.25
2022-09-10T12:14:15.484Z,4.10
2022-09-10T12:16:54.228Z,3.67
2022-09-10T12:19:30.075Z,4.50
2022-09-10T12:22:20.359Z,3.80
2022-09-10T12:27:43.726Z,4.35
2022-09-10T12:30:28.326Z,4.38
2022-09-10T12:33:00.587Z,4.70
2022-09-10T12:35:34.261Z,4.72
2022-09-10T12:38:39.910Z,4.18
2022-09-10T12:41:12.238Z,4.75
2022-09-10T12:43:39.025Z,4.05
2022-09-10T12:46:14.414Z,4.43
2022-09-10T12:48:47.472Z,4.13
2022-09-10T12:51:16.962Z,4.88
2022-09-10T12:54:01.979Z,4.88
2022-09-10T12:56:57.449Z,5.10
2022-09-10T12:59:30.151Z,5.18
2022-09-10T13:01:57.715Z,4.07
2022-09-10T13:04:34.951Z,4.35
2022-09-10T13:07:19.749Z,3.90
2022-09-10T13:09:56.340Z,3.80
2022-09-10T13:12:25.815Z,4.90
2022-09-10T13:14:54.894Z,4.68
2022-09-10T13:17:51.358Z,4.35
2022-09-10T13:20:20.991Z,4.50
2022-09-10T13:23:04.428Z,4.25
2022-09-10T13:25:37.485Z,4.55
2022-09-10T13:28:30.178Z,4.30
2022-09-10T13:31:08.707Z,4.00
2022-09-10T13:33:51.824Z,3.42
2022-09-10T13:36:58.748Z,3.40
2022-09-10T13:39:34.379Z,3.65
2022-09-10T13:42:06.930Z,3.47
2022-09-10T13:44:45.316Z,3.67
2022-09-10T13:47:19.095Z,3.97
2022-09-10T13:49:56.394Z,3.58
2022-09-10T13:52:30.963Z,3.72
2022-09-10T13:54:59.528Z,2.97
2022-09-10T13:57:31.204Z,2.85
2022-09-10T14:00:14.476Z,2.78
2022-09-10T14:02:47.528Z,3.08
2022-09-10T14:05:33.857Z,2.95
2022-09-10T14:08:29.502Z,3.40
2022-09-10T14:11:14.415Z,3.15
2022-09-10T14:13:46.881Z,3.22
2022-09-10T14:16:20.676Z,3.15
2022-09-10T14:18:52.304Z,3.20
2022-09-10T14:21:26.820Z,3.67
2022-09-10T14:23:55.502Z,3.15
2022-09-10T14:26:26.457Z,3.55
2022-09-10T14:28:56.360Z,3.40
2022-09-10T14:31:36.713Z,3.95
2022-09-10T14:34:36.216Z,3.50
2022-09-10T14:37:38.085Z,3.45
2022-09-10T14:40:18.461Z,4.00
2022-09-10T14:42:49.742Z,3.38
2022-09-10T14:45:42.757Z,3.72
2022-09-10T14:48:33.183Z,3.30
2022-09-10T14:51:10.941Z,2.90
2022-09-10T14:53:38.248Z,2.83
2022-09-10T14:56:10.951Z,3.00
2022-09-10T14:58:37.644Z,3.28
2022-09-10T15:01:04.622Z,3.03
2022-09-10T15:03:31.274Z,2.83
2022-09-10T15:05:57.942Z,2.60
2022-09-10T15:08:24.826Z,2.70
2022-09-10T15:10:51.470Z,2.67
2022-09-10T15:13:18.766Z,2.72
2022-09-10T15:15:48.756Z,2.80
2022-09-10T15:18:17.223Z,2.95
2022-09-10T15:20:43.878Z,2.53
2022-09-10T15:23:11.353Z,2.60
2022-09-10T15:25:43.443Z,2.30
2022-09-10T15:28:10.129Z,2.40
2022-09-10T15:30:36.951Z,2.67
2022-09-10T15:33:05.125Z,2.42
2022-09-10T15:35:32.136Z,2.33
2022-09-10T15:38:01.627Z,2.50
2022-09-10T15:40:28.321Z,2.67
2022-09-10T15:42:54.982Z,2.47
2022-09-10T15:45:21.666Z,2.67
2022-09-10T15:47:48.363Z,2.50
2022-09-10T15:50:16.067Z,2.97
2022-09-10T15:52:44.948Z,2.70
2022-09-10T15:55:12.399Z,2.70
2022-09-10T15:57:40.329Z,2.45
2022-09-10T16:00:08.001Z,2.30
2022-09-10T16:02:34.791Z,2.40
2022-09-10T16:05:01.489Z,2.50
2022-09-10T16:07:29.357Z,2.47
2022-09-10T16:09:57.672Z,2.17
2022-09-10T16:12:27.299Z,2.20
2022-09-10T16:14:54.037Z,2.30
2022-09-10T16:17:20.807Z,2.20
2022-09-10T16:19:47.694Z,2.70
2022-09-10T16:22:17.543Z,2.28
2022-09-10T16:24:47.136Z,2.47
2022-09-10T16:27:13.824Z,2.42
2022-09-10T16:29:43.505Z,2.17
2022-09-10T16:32:13.311Z,2.22
2022-09-10T16:34:40.153Z,2.58
2022-09-10T16:37:07.032Z,2.40
2022-09-10T16:39:33.766Z,2.10
2022-09-10T16:42:00.472Z,2.20
2022-09-10T16:44:28.428Z,2.58
2022-09-10T16:46:57.497Z,2.30
2022-09-10T16:49:24.205Z,2.90
2022-09-10T16:51:50.940Z,2.13
2022-09-10T16:54:21.007Z,2.17
2022-09-10T16:56:48.738Z,2.30
2022-09-10T16:59:20.680Z,2.80
2022-09-10T17:01:48.445Z,2.35
2022-09-10T17:04:24.672Z,2.00
2022-09-10T17:06:55.322Z,2.20
2022-09-10T17:09:22.619Z,2.40
2022-09-10T17:11:49.385Z,1.95
2022-09-10T17:14:16.017Z,2.20
2022-09-10T17:16:43.567Z,2.70
2022-09-10T17:19:16.741Z,2.03
2022-09-10T17:21:48.005Z,2.40
2022-09-10T17:24:14.784Z,2.40
2022-09-10T17:26:41.975Z,2.15
2022-09-10T17:29:20.452Z,2.47
2022-09-10T17:31:47.594Z,2.45
2022-09-10T17:34:15.600Z,2.28
2022-09-10T17:36:45.232Z,2.22
2022-09-10T17:39:12.882Z,1.85
2022-09-10T17:41:40.034Z,2.22
2022-09-10T17:44:07.905Z,2.40
2022-09-10T17:46:36.152Z,2.53
2022-09-10T17:49:03.695Z,2.78
2022-09-10T17:51:33.607Z,3.20
2022-09-10T17:54:02.947Z,2.65
2022-09-10T17:56:29.910Z,3.22
2022-09-10T17:59:04.186Z,3.10
2022-09-10T18:01:33.713Z,3.42
2022-09-10T18:04:00.545Z,4.13
2022-09-10T18:06:29.021Z,4.85
2022-09-10T18:09:00.614Z,5.03
2022-09-10T18:11:31.453Z,5.30
2022-09-10T18:13:59.192Z,4.88
2022-09-10T18:16:28.610Z,5.43
2022-09-10T18:18:59.324Z,4.40
2022-09-10T18:21:31.713Z,4.80
2022-09-10T18:24:05.153Z,4.57
2022-09-10T18:26:34.710Z,4.15
2022-09-10T18:29:04.264Z,4.30
2022-09-10T18:31:34.381Z,4.47
2022-09-10T18:36:31.503Z,4.68
2022-09-10T18:41:27.825Z,3.85
2022-09-10T18:43:57.651Z,3.72
2022-09-10T18:46:26.635Z,3.70
2022-09-10T18:48:53.713Z,3.63
2022-09-10T18:51:22.767Z,3.30
2022-09-10T18:53:53.608Z,3.85
2022-09-10T18:56:23.280Z,4.20
2022-09-10T18:58:50.814Z,3.80
2022-09-10T19:01:18.691Z,3.72
2022-09-10T19:03:47.508Z,3.33
2022-09-10T19:06:19.747Z,3.38
2022-09-10T19:08:57.700Z,3.67
2022-09-10T19:11:27.719Z,3.97
2022-09-10T19:13:56.621Z,4.18
2022-09-10T19:16:27.425Z,5.45
2022-09-10T19:18:56.377Z,4.85
2022-09-10T19:21:24.715Z,4.88
2022-09-10T19:23:55.182Z,4.43
2022-09-10T19:26:25.299Z,4.30
2022-09-10T19:28:52.321Z,4.40
2022-09-10T19:31:20.693Z,5.07
2022-09-10T19:33:48.033Z,4.63
2022-09-10T19:36:17.703Z,5.50
2022-09-10T19:38:46.046Z,5.10
2022-09-10T19:41:18.773Z,5.20
2022-09-10T19:43:50.164Z,4.97
2022-09-10T19:46:18.853Z,4.93
2022-09-10T19:48:46.718Z,5.20
2022-09-10T19:51:20.053Z,4.72
2022-09-10T19:53:48.040Z,5.28
2022-09-10T19:56:21.220Z,5.10
2022-09-10T19:58:49.874Z,5.90
2022-09-10T20:01:46.182Z,6.13
2022-09-10T20:04:13.993Z,5.95
2022-09-10T20:06:42.426Z,5.95
2022-09-10T20:09:10.086Z,5.70
2022-09-10T20:11:37.290Z,5.78
2022-09-10T20:14:21.829Z,6.25
2022-09-10T20:16:48.498Z,6.43
2022-09-10T20:19:18.317Z,5.65
2022-09-10T20:21:47.586Z,5.50
2022-09-10T20:24:14.996Z,5.87
2022-09-10T20:26:43.604Z,5.90
2022-09-10T20:29:12.711Z,5.55
2022-09-10T20:31:41.229Z,5.45
2022-09-10T20:34:10.983Z,5.55
2022-09-10T20:36:42.277Z,5.10
2022-09-10T20:39:11.197Z,5.35
2022-09-10T20:41:39.119Z,4.78
2022-09-10T20:44:06.197Z,5.30
2022-09-10T20:46:34.382Z,5.03
2022-09-10T20:49:04.178Z,4.63
2022-09-10T20:51:36.141Z,5.00
2022-09-10T20:54:03.870Z,4.60
2022-09-10T20:56:30.759Z,4.68
2022-09-10T20:58:57.741Z,5.47
2022-09-10T21:01:26.639Z,5.15
2022-09-10T21:03:57.925Z,4.70
2022-09-10T21:06:30.059Z,5.22
2022-09-10T21:08:57.283Z,5.20
2022-09-10T21:11:25.977Z,5.82
2022-09-10T21:13:58.223Z,5.63
2022-09-10T21:16:30.032Z,5.60
2022-09-10T21:19:02.084Z,5.53
2022-09-10T21:21:34.085Z,5.25
2022-09-10T21:24:02.760Z,5.80
2022-09-10T21:26:39.236Z,5.95
2022-09-10T21:29:10.773Z,5.15
2022-09-10T21:31:37.581Z,5.85
2022-09-10T21:34:06.027Z,5.78
2022-09-10T21:36:35.208Z,5.40
2022-09-10T21:39:04.126Z,5.70
2022-09-10T21:41:39.853Z,5.72
2022-09-10T21:44:22.031Z,5.65
2022-09-10T21:46:49.884Z,5.75
2022-09-10T21:49:17.333Z,5.32
2022-09-10T21:51:44.514Z,5.65
2022-09-10T21:54:18.502Z,5.38
2022-09-10T21:56:45.349Z,5.57
2022-09-10T21:59:13.039Z,5.15
2022-09-10T22:01:42.037Z,5.22
2022-09-10T22:04:09.086Z,5.20
2022-09-10T22:06:36.188Z,4.88
2022-09-10T22:09:09.681Z,5.25
2022-09-10T22:11:42.304Z,6.43
2022-09-10T22:14:14.082Z,5.30
2022-09-10T22:16:40.987Z,5.22
2022-09-10T22:19:11.041Z,5.65
2022-09-10T22:21:40.963Z,5.72
2022-09-10T22:24:10.753Z,5.43
2022-09-10T22:26:42.345Z,5.60
2022-09-10T22:29:09.539Z,4.93
2022-09-10T22:31:36.504Z,5.65
2022-09-10T22:34:06.327Z,5.32
2022-09-10T22:36:35.450Z,5.93
2022-09-10T22:39:14.751Z,4.97
2022-09-10T22:41:41.968Z,5.22
2022-09-10T22:44:08.897Z,5.03
2022-09-10T22:46:36.806Z,6.00
2022-09-10T22:49:04.051Z,5.50
2022-09-10T22:51:36.982Z,5.68
2022-09-10T22:54:05.206Z,5.43
2022-09-10T22:56:32.086Z,5.22
2022-09-10T22:58:59.615Z,4.70
2022-09-10T23:01:33.971Z,5.45
2022-09-10T23:04:02.329Z,5.40
2022-09-10T23:06:32.809Z,5.97
2022-09-10T23:09:15.025Z,5.22
2022-09-10T23:11:43.957Z,5.82
2022-09-10T23:14:17.605Z,5.57
2022-09-10T23:16:48.395Z,5.93
2022-09-10T23:19:18.768Z,5.57
2022-09-10T23:24:15.800Z,5.65
2022-09-10T23:26:43.537Z,5.40
2022-09-10T23:29:10.974Z,5.40
2022-09-10T23:31:39.431Z,5.50
2022-09-10T23:34:09.878Z,5.70
2022-09-10T23:36:39.413Z,5.38
2022-09-10T23:39:17.529Z,5.63
2022-09-10T23:41:44.308Z,5.78
2022-09-10T23:44:10.914Z,5.70
2022-09-10T23:46:37.886Z,5.68
2022-09-10T23:49:05.412Z,5.65
2022-09-10T23:51:32.036Z,5.85
2022-09-10T23:53:59.386Z,5.38
2022-09-10T23:56:26.868Z,4.90
2022-09-10T23:58:53.605Z,5.43
